createdAt,value
2018-06-30T00:02:57.188Z,72.30
2018-06-30T00:07:01.549Z,72.50
2018-06-30T00:11:05.822Z,71.00
2018-06-30T00:15:10.220Z,72.90
2018-06-30T00:19:14.482Z,74.10
2018-06-30T00:23:18.733Z,76.00
2018-06-30T00:27:29.395Z,76.00
2018-06-30T00:31:33.703Z,78.30
2018-06-30T00:35:38.092Z,80.10
2018-06-30T00:39:42.380Z,80.80
2018-06-30T00:43:46.578Z,82.20
2018-06-30T00:47:51.266Z,81.60
2018-06-30T00:51:55.558Z,82.30
2018-06-30T00:55:59.779Z,84.80
2018-06-30T01:00:04.251Z,86.80
2018-06-30T01:04:08.619Z,87.60
2018-06-30T01:08:12.911Z,88.80
2018-06-30T01:12:17.385Z,90.00
2018-06-30T01:16:21.668Z,90.00
2018-06-30T01:20:25.901Z,90.80
2018-06-30T01:24:30.192Z,91.40
2018-06-30T01:28:34.400Z,91.30
2018-06-30T01:32:38.880Z,91.40
2018-06-30T01:36:43.122Z,92.30
2018-06-30T01:40:47.330Z,93.50
2018-06-30T01:44:51.605Z,94.00
2018-06-30T01:48:55.839Z,94.50
2018-06-30T01:53:00.155Z,94.50
2018-06-30T01:57:04.462Z,95.30
2018-06-30T02:01:08.853Z,95.80
2018-06-30T02:05:13.240Z,96.10
2018-06-30T02:09:17.511Z,97.00
2018-06-30T02:13:21.801Z,97.10
2018-06-30T02:17:26.040Z,97.90
2018-06-30T02:21:30.290Z,97.90
2018-06-30T02:25:34.556Z,98.00
2018-06-30T02:29:39.067Z,98.20
2018-06-30T02:33:43.301Z,98.70
2018-06-30T02:37:47.553Z,98.80
2018-06-30T02:41:52.227Z,98.90
2018-06-30T02:45:56.578Z,98.90
2018-06-30T02:50:00.741Z,99.10
2018-06-30T02:54:05.124Z,99.40
2018-06-30T02:58:09.322Z,99.60
2018-06-30T03:02:13.696Z,99.60
2018-06-30T03:06:17.927Z,99.70
2018-06-30T03:10:22.137Z,99.90
2018-06-30T03:14:26.480Z,99.90
2018-06-30T03:18:30.997Z,99.90
2018-06-30T03:22:35.248Z,99.90
2018-06-30T03:26:39.544Z,99.90
2018-06-30T03:30:43.841Z,99.90
2018-06-30T03:34:48.069Z,99.90
2018-06-30T03:38:52.469Z,99.90
2018-06-30T03:42:57.020Z,99.90
2018-06-30T03:47:01.376Z,99.90
2018-06-30T03:51:05.787Z,99.90
2018-06-30T03:55:10.088Z,99.90
2018-06-30T03:59:14.452Z,99.90
2018-06-30T04:03:18.742Z,99.90
2018-06-30T04:07:23.356Z,99.90
2018-06-30T04:11:27.722Z,99.90
2018-06-30T04:15:31.974Z,99.90
2018-06-30T04:19:36.174Z,99.90
2018-06-30T04:23:40.538Z,99.90
2018-06-30T04:27:44.874Z,99.90
2018-06-30T04:31:49.136Z,99.90
2018-06-30T04:35:53.461Z,99.90
2018-06-30T04:39:57.758Z,99.90
2018-06-30T04:44:02.161Z,99.90
2018-06-30T04:48:06.503Z,99.90
2018-06-30T04:52:10.790Z,99.90
2018-06-30T04:56:15.202Z,99.80
2018-06-30T05:00:19.480Z,99.70
2018-06-30T05:04:24.214Z,99.90
2018-06-30T05:08:28.674Z,99.70
2018-06-30T05:12:32.927Z,99.50
2018-06-30T05:16:37.213Z,99.60
2018-06-30T05:20:41.552Z,99.60
2018-06-30T05:24:45.799Z,99.70
2018-06-30T05:28:50.052Z,99.90
2018-06-30T05:32:54.400Z,99.40
2018-06-30T05:36:58.835Z,99.30
2018-06-30T05:41:04.644Z,99.40
2018-06-30T05:45:10.575Z,98.30
2018-06-30T05:49:15.137Z,93.50
2018-06-30T05:53:19.473Z,93.30
2018-06-30T05:57:23.737Z,93.20
2018-06-30T06:01:28.243Z,94.40
2018-06-30T06:05:32.653Z,91.90
2018-06-30T06:09:41.405Z,90.00
2018-06-30T06:13:45.656Z,85.00
2018-06-30T06:17:50.232Z,82.30
2018-06-30T06:21:54.717Z,80.60
2018-06-30T06:25:59.055Z,84.10
2018-06-30T06:30:04.204Z,80.20
2018-06-30T06:34:08.496Z,78.50
2018-06-30T06:38:12.861Z,80.40
2018-06-30T06:42:17.123Z,75.70
2018-06-30T06:46:21.377Z,74.70
2018-06-30T06:50:25.701Z,70.50
2018-06-30T06:54:30.096Z,69.50
2018-06-30T06:58:34.370Z,69.00
2018-06-30T07:02:38.829Z,66.00
2018-06-30T07:06:43.086Z,64.20
2018-06-30T07:10:47.797Z,63.90
2018-06-30T07:14:52.046Z,63.40
2018-06-30T07:18:56.312Z,65.40
2018-06-30T07:23:00.552Z,62.00
2018-06-30T07:27:04.848Z,62.10
2018-06-30T07:31:09.485Z,63.30
2018-06-30T07:35:13.809Z,61.50
2018-06-30T07:39:18.076Z,62.40
2018-06-30T07:43:22.480Z,58.20
2018-06-30T07:47:26.873Z,62.90
2018-06-30T07:51:31.319Z,61.30
2018-06-30T07:55:35.661Z,58.70
2018-06-30T07:59:39.990Z,57.80
2018-06-30T08:03:44.408Z,56.50
2018-06-30T08:07:48.796Z,58.20
2018-06-30T08:11:53.434Z,55.60
2018-06-30T08:15:57.689Z,55.60
2018-06-30T08:20:02.098Z,53.70
2018-06-30T08:24:06.552Z,52.70
2018-06-30T08:28:10.875Z,53.50
2018-06-30T08:32:15.234Z,53.80
2018-06-30T08:36:19.516Z,50.50
2018-06-30T08:40:23.827Z,49.00
2018-06-30T08:44:28.300Z,49.50
2018-06-30T08:48:32.550Z,49.30
2018-06-30T08:52:36.828Z,46.00
2018-06-30T08:56:41.164Z,44.40
2018-06-30T09:00:45.524Z,41.30
2018-06-30T09:04:49.804Z,40.80
2018-06-30T09:08:55.206Z,40.00
2018-06-30T09:12:59.525Z,39.70
2018-06-30T09:17:03.924Z,37.10
2018-06-30T09:21:08.363Z,37.10
2018-06-30T09:25:12.876Z,34.50
2018-06-30T09:29:17.220Z,35.20
2018-06-30T09:33:21.481Z,36.00
2018-06-30T09:37:25.770Z,38.50
2018-06-30T09:41:30.134Z,38.30
2018-06-30T09:45:34.457Z,39.10
2018-06-30T09:49:38.751Z,39.90
2018-06-30T09:53:43.038Z,39.10
2018-06-30T09:57:48.340Z,45.50
2018-06-30T10:01:52.574Z,42.70
2018-06-30T10:05:56.793Z,41.20
2018-06-30T10:10:01.105Z,36.40
2018-06-30T10:14:05.397Z,36.60
2018-06-30T10:18:17.371Z,33.10
2018-06-30T10:22:21.624Z,29.20
2018-06-30T10:26:26.119Z,31.40
2018-06-30T10:30:30.451Z,31.50
2018-06-30T10:34:34.720Z,30.60
2018-06-30T10:38:38.955Z,28.80
2018-06-30T10:42:43.341Z,29.30
2018-06-30T10:46:47.615Z,28.50
2018-06-30T10:50:51.924Z,29.30
2018-06-30T10:54:56.164Z,29.20
2018-06-30T10:59:00.579Z,29.20
2018-06-30T11:03:04.998Z,28.60
2018-06-30T11:07:09.317Z,28.20
2018-06-30T11:11:14.492Z,24.70
2018-06-30T11:15:18.800Z,26.00
2018-06-30T11:19:23.113Z,25.60
2018-06-30T11:23:27.486Z,24.70
2018-06-30T11:27:31.832Z,25.20
2018-06-30T11:31:37.154Z,25.60
2018-06-30T11:35:41.443Z,25.50
2018-06-30T11:39:45.943Z,28.50
2018-06-30T11:43:53.196Z,27.00
2018-06-30T11:47:58.085Z,26.10
2018-06-30T11:52:02.617Z,23.50
2018-06-30T11:56:07.525Z,23.70
2018-06-30T12:00:12.034Z,21.90
2018-06-30T12:04:16.553Z,25.70
2018-06-30T12:08:21.340Z,25.10
2018-06-30T12:12:25.836Z,21.90
2018-06-30T12:16:30.849Z,27.20
2018-06-30T12:20:35.381Z,34.30
2018-06-30T12:24:39.986Z,34.40
2018-06-30T12:28:44.867Z,32.90
2018-06-30T12:32:49.323Z,34.90
2018-06-30T12:36:53.764Z,37.20
2018-06-30T12:40:58.184Z,36.90
2018-06-30T12:45:02.793Z,33.50
2018-06-30T12:49:07.302Z,32.50
2018-06-30T12:53:11.731Z,31.50
2018-06-30T12:57:16.676Z,33.70
2018-06-30T13:01:21.367Z,36.10
2018-06-30T13:05:25.828Z,38.20
2018-06-30T13:09:30.808Z,40.50
2018-06-30T13:13:35.284Z,44.80
2018-06-30T13:17:39.932Z,47.60
2018-06-30T13:21:44.634Z,45.30
2018-06-30T13:25:49.300Z,42.70
2018-06-30T13:29:53.709Z,40.00
2018-06-30T13:33:58.224Z,42.10
2018-06-30T13:38:02.547Z,38.40
2018-06-30T13:42:06.909Z,37.40
2018-06-30T13:46:11.382Z,35.00
2018-06-30T13:50:15.939Z,35.60
2018-06-30T13:54:20.348Z,40.10
2018-06-30T13:58:25.234Z,43.30
2018-06-30T14:02:29.561Z,42.10
2018-06-30T14:06:34.535Z,41.00
2018-06-30T14:10:39.550Z,40.40
2018-06-30T14:14:44.400Z,42.80
2018-06-30T14:18:49.316Z,46.60
2018-06-30T14:22:53.621Z,49.70
2018-06-30T14:26:59.194Z,49.10
2018-06-30T14:31:03.912Z,49.30
2018-06-30T14:35:09.218Z,50.20
2018-06-30T14:39:14.197Z,52.60
2018-06-30T14:43:19.152Z,53.50
2018-06-30T14:47:24.055Z,48.60
2018-06-30T14:51:28.769Z,41.30
2018-06-30T14:55:33.837Z,40.50
2018-06-30T14:59:38.513Z,39.30
2018-06-30T15:03:43.421Z,39.90
2018-06-30T15:07:48.092Z,44.40
2018-06-30T15:11:56.088Z,49.10
2018-06-30T15:16:00.577Z,52.40
2018-06-30T15:20:05.383Z,57.40
2018-06-30T15:24:10.278Z,56.00
2018-06-30T15:28:14.649Z,56.40
2018-06-30T15:32:19.852Z,54.70
2018-06-30T15:36:24.737Z,56.50
2018-06-30T15:40:29.633Z,56.90
2018-06-30T15:44:34.487Z,53.80
2018-06-30T15:48:39.512Z,54.90
2018-06-30T15:52:44.878Z,55.00
2018-06-30T15:56:49.229Z,55.20
2018-06-30T16:00:53.958Z,54.50
2018-06-30T16:04:58.602Z,58.10
2018-06-30T16:09:03.338Z,60.60
2018-06-30T16:13:08.105Z,57.70
2018-06-30T16:17:13.058Z,58.00
2018-06-30T16:21:17.844Z,61.90
2018-06-30T16:25:22.670Z,61.30
2018-06-30T16:29:27.526Z,60.80
2018-06-30T16:33:32.513Z,63.20
2018-06-30T16:37:37.089Z,62.00
2018-06-30T16:41:42.461Z,65.90
2018-06-30T16:45:46.769Z,66.70
2018-06-30T16:49:51.481Z,67.40
2018-06-30T16:53:56.197Z,67.30
2018-06-30T16:58:01.211Z,68.30
2018-06-30T17:02:06.176Z,69.50
2018-06-30T17:06:10.741Z,63.10
2018-06-30T17:10:15.661Z,67.80
2018-06-30T17:14:20.641Z,67.10
2018-06-30T17:18:25.155Z,61.60
2018-06-30T17:22:29.675Z,60.10
2018-06-30T17:26:35.454Z,66.10
2018-06-30T17:30:41.373Z,60.70
2018-06-30T17:34:45.801Z,56.20
2018-06-30T17:38:50.804Z,55.20
2018-06-30T17:42:55.647Z,53.30
2018-06-30T17:47:00.208Z,53.60
2018-06-30T17:51:05.176Z,56.30
2018-06-30T17:55:10.596Z,52.20
2018-06-30T17:59:15.001Z,49.90
2018-06-30T18:03:19.582Z,50.30
2018-06-30T18:07:24.050Z,49.40
2018-06-30T18:11:28.446Z,51.30
2018-06-30T18:15:33.112Z,50.60
2018-06-30T18:19:38.009Z,53.10
2018-06-30T18:23:42.807Z,55.50
2018-06-30T18:27:48.256Z,49.60
2018-06-30T18:31:53.284Z,51.90
2018-06-30T18:35:58.237Z,54.00
2018-06-30T18:40:07.704Z,51.40
2018-06-30T18:44:12.883Z,49.20
2018-06-30T18:48:18.573Z,55.10
2018-06-30T18:52:25.016Z,52.90
2018-06-30T18:56:31.661Z,54.00
2018-06-30T19:00:39.017Z,59.50
2018-06-30T19:04:43.944Z,51.90
2018-06-30T19:08:49.764Z,54.90
2018-06-30T19:12:59.101Z,57.40
2018-06-30T19:17:03.917Z,52.10
2018-06-30T19:21:09.211Z,57.00
2018-06-30T19:25:13.763Z,57.90
2018-06-30T19:29:18.509Z,58.40
2018-06-30T19:33:23.497Z,58.50
2018-06-30T19:37:28.439Z,58.40
2018-06-30T19:41:33.272Z,59.50
2018-06-30T19:45:38.009Z,57.70
2018-06-30T19:49:42.685Z,56.40
2018-06-30T19:53:47.555Z,56.80
2018-06-30T19:57:52.581Z,54.40
2018-06-30T20:01:57.732Z,56.60
2018-06-30T20:06:02.396Z,57.60
2018-06-30T20:10:06.999Z,58.10
2018-06-30T20:14:11.717Z,57.90
2018-06-30T20:18:17.177Z,56.50
2018-06-30T20:22:21.970Z,49.10
2018-06-30T20:26:26.608Z,50.30
2018-06-30T20:30:31.437Z,51.40
2018-06-30T20:34:36.521Z,52.70
2018-06-30T20:38:42.650Z,56.20
2018-06-30T20:42:48.048Z,55.40
2018-06-30T20:46:52.852Z,52.70
2018-06-30T20:50:57.421Z,55.00
2018-06-30T20:55:02.193Z,52.20
2018-06-30T20:59:06.833Z,53.70
2018-06-30T21:03:13.177Z,50.10
2018-06-30T21:07:18.098Z,49.80
2018-06-30T21:11:22.848Z,49.40
2018-06-30T21:15:27.725Z,49.10
2018-06-30T21:19:32.098Z,50.00
2018-06-30T21:23:37.356Z,47.50
2018-06-30T21:27:41.878Z,50.10
2018-06-30T21:31:46.150Z,50.40
2018-06-30T21:35:50.637Z,47.70
2018-06-30T21:39:54.969Z,48.10
2018-06-30T21:43:59.257Z,50.30
2018-06-30T21:48:03.656Z,48.30
2018-06-30T21:52:07.955Z,48.20
2018-06-30T21:56:12.249Z,50.30
2018-06-30T22:00:18.993Z,48.60
2018-06-30T22:04:24.373Z,52.90
2018-06-30T22:08:28.611Z,50.90
2018-06-30T22:12:33.046Z,51.80
2018-06-30T22:16:37.281Z,53.70
2018-06-30T22:20:41.681Z,49.40
2018-06-30T22:24:45.957Z,54.10
2018-06-30T22:28:50.181Z,51.40
2018-06-30T22:32:54.587Z,50.10
2018-06-30T22:36:58.908Z,50.70
2018-06-30T22:41:03.091Z,52.90
2018-06-30T22:45:07.621Z,55.50
2018-06-30T22:49:11.859Z,53.30
2018-06-30T22:53:16.145Z,51.10
2018-06-30T22:57:20.521Z,53.60
2018-06-30T23:01:24.857Z,53.80
2018-06-30T23:05:29.251Z,56.00
2018-06-30T23:09:33.491Z,58.70
2018-06-30T23:13:37.731Z,60.50
2018-06-30T23:17:42.192Z,62.10
2018-06-30T23:21:46.530Z,63.20
2018-06-30T23:25:50.801Z,65.10
2018-06-30T23:29:55.076Z,65.00
2018-06-30T23:33:59.277Z,65.10
2018-06-30T23:38:04.297Z,66.80
2018-06-30T23:42:08.627Z,67.70
2018-06-30T23:46:12.909Z,68.40
2018-06-30T23:50:17.395Z,68.50
2018-06-30T23:54:21.640Z,70.20
2018-06-30T23:58:25.917Z,69.90
